sensor_id;sensor_type;location;lat;lon;timestamp;P1;durP1;ratioP1;P2;durP2;ratioP2
9771;SDS011;4925;52.588;13.370;2023-04-25T00:00:52;3.33;;;2.53;;
9771;SDS011;4925;52.588;13.370;2023-04-25T00:03:18;3.03;;;2.50;;
9771;SDS011;4925;52.588;13.370;2023-04-25T00:05:44;2.43;;;2.20;;
9771;SDS011;4925;52.588;13.370;2023-04-25T00:08:10;2.77;;;1.97;;
9771;SDS011;4925;52.588;13.370;2023-04-25T00:10:36;3.33;;;2.30;;
9771;SDS011;4925;52.588;13.370;2023-04-25T00:13:02;3.23;;;2.37;;
9771;SDS011;4925;52.588;13.370;2023-04-25T00:15:28;2.40;;;2.20;;
9771;SDS011;4925;52.588;13.370;2023-04-25T00:17:55;3.37;;;2.10;;
9771;SDS011;4925;52.588;13.370;2023-04-25T00:20:21;3.13;;;2.30;;
9771;SDS011;4925;52.588;13.370;2023-04-25T00:22:48;4.10;;;2.33;;
9771;SDS011;4925;52.588;13.370;2023-04-25T00:25:14;3.63;;;2.00;;
9771;SDS011;4925;52.588;13.370;2023-04-25T00:27:40;3.90;;;2.00;;
9771;SDS011;4925;52.588;13.370;2023-04-25T00:30:06;3.67;;;2.10;;
9771;SDS011;4925;52.588;13.370;2023-04-25T00:32:32;8.30;;;2.10;;
9771;SDS011;4925;52.588;13.370;2023-04-25T00:34:58;1.70;;;1.60;;
9771;SDS011;4925;52.588;13.370;2023-04-25T00:37:24;2.20;;;1.90;;
9771;SDS011;4925;52.588;13.370;2023-04-25T00:39:50;3.33;;;1.70;;
9771;SDS011;4925;52.588;13.370;2023-04-25T00:42:16;5.20;;;2.40;;
9771;SDS011;4925;52.588;13.370;2023-04-25T00:44:42;4.43;;;2.20;;
9771;SDS011;4925;52.588;13.370;2023-04-25T00:47:08;5.17;;;2.10;;
9771;SDS011;4925;52.588;13.370;2023-04-25T00:49:35;2.80;;;1.83;;
9771;SDS011;4925;52.588;13.370;2023-04-25T00:52:01;6.33;;;2.10;;
9771;SDS011;4925;52.588;13.370;2023-04-25T00:54:27;5.80;;;2.30;;
9771;SDS011;4925;52.588;13.370;2023-04-25T00:56:52;5.40;;;2.03;;
9771;SDS011;4925;52.588;13.370;2023-04-25T00:59:19;5.97;;;2.20;;
9771;SDS011;4925;52.588;13.370;2023-04-25T01:01:45;4.23;;;2.43;;
9771;SDS011;4925;52.588;13.370;2023-04-25T01:04:11;5.13;;;2.50;;
9771;SDS011;4925;52.588;13.370;2023-04-25T01:06:38;5.43;;;2.67;;
9771;SDS011;4925;52.588;13.370;2023-04-25T01:09:03;4.97;;;2.27;;
9771;SDS011;4925;52.588;13.370;2023-04-25T01:11:30;3.87;;;2.20;;
9771;SDS011;4925;52.588;13.370;2023-04-25T01:13:56;5.60;;;2.77;;
9771;SDS011;4925;52.588;13.370;2023-04-25T01:16:22;7.30;;;2.20;;
9771;SDS011;4925;52.588;13.370;2023-04-25T01:18:49;4.47;;;2.10;;
9771;SDS011;4925;52.588;13.370;2023-04-25T01:21:16;4.17;;;2.37;;
9771;SDS011;4925;52.588;13.370;2023-04-25T01:23:42;3.90;;;2.70;;
9771;SDS011;4925;52.588;13.370;2023-04-25T01:26:11;2.67;;;2.47;;
9771;SDS011;4925;52.588;13.370;2023-04-25T01:28:38;2.53;;;2.33;;
9771;SDS011;4925;52.588;13.370;2023-04-25T01:31:07;4.20;;;2.20;;
9771;SDS011;4925;52.588;13.370;2023-04-25T01:33:34;5.37;;;2.50;;
9771;SDS011;4925;52.588;13.370;2023-04-25T01:36:00;6.57;;;2.70;;
9771;SDS011;4925;52.588;13.370;2023-04-25T01:38:25;5.77;;;2.17;;
9771;SDS011;4925;52.588;13.370;2023-04-25T01:40:51;6.00;;;2.63;;
9771;SDS011;4925;52.588;13.370;2023-04-25T01:43:18;4.33;;;2.57;;
9771;SDS011;4925;52.588;13.370;2023-04-25T01:45:44;5.90;;;2.47;;
9771;SDS011;4925;52.588;13.370;2023-04-25T01:48:10;6.67;;;2.93;;
9771;SDS011;4925;52.588;13.370;2023-04-25T01:50:38;10.83;;;2.70;;
9771;SDS011;4925;52.588;13.370;2023-04-25T01:53:04;2.87;;;2.07;;
9771;SDS011;4925;52.588;13.370;2023-04-25T01:55:31;8.27;;;2.50;;
9771;SDS011;4925;52.588;13.370;2023-04-25T01:57:56;5.43;;;2.70;;
9771;SDS011;4925;52.588;13.370;2023-04-25T02:00:23;7.33;;;2.80;;
9771;SDS011;4925;52.588;13.370;2023-04-25T02:02:49;4.67;;;2.70;;
9771;SDS011;4925;52.588;13.370;2023-04-25T02:05:16;5.00;;;2.10;;
9771;SDS011;4925;52.588;13.370;2023-04-25T02:07:42;3.63;;;2.57;;
9771;SDS011;4925;52.588;13.370;2023-04-25T02:10:08;6.70;;;2.77;;
9771;SDS011;4925;52.588;13.370;2023-04-25T02:12:35;4.47;;;2.57;;
9771;SDS011;4925;52.588;13.370;2023-04-25T02:15:01;5.53;;;2.60;;
9771;SDS011;4925;52.588;13.370;2023-04-25T02:17:27;4.53;;;2.53;;
9771;SDS011;4925;52.588;13.370;2023-04-25T02:19:52;6.73;;;3.00;;
9771;SDS011;4925;52.588;13.370;2023-04-25T02:22:18;7.30;;;3.00;;
9771;SDS011;4925;52.588;13.370;2023-04-25T02:24:44;3.30;;;2.80;;
9771;SDS011;4925;52.588;13.370;2023-04-25T02:27:10;3.67;;;2.63;;
9771;SDS011;4925;52.588;13.370;2023-04-25T02:29:36;4.60;;;2.47;;
9771;SDS011;4925;52.588;13.370;2023-04-25T02:32:01;4.47;;;2.90;;
9771;SDS011;4925;52.588;13.370;2023-04-25T02:34:27;8.43;;;3.27;;
9771;SDS011;4925;52.588;13.370;2023-04-25T02:36:53;7.53;;;3.03;;
9771;SDS011;4925;52.588;13.370;2023-04-25T02:39:18;7.03;;;2.70;;
9771;SDS011;4925;52.588;13.370;2023-04-25T02:41:44;5.30;;;2.83;;
9771;SDS011;4925;52.588;13.370;2023-04-25T02:44:10;6.17;;;3.20;;
9771;SDS011;4925;52.588;13.370;2023-04-25T02:46:35;11.43;;;3.30;;
9771;SDS011;4925;52.588;13.370;2023-04-25T02:49:01;6.63;;;2.80;;
9771;SDS011;4925;52.588;13.370;2023-04-25T02:51:27;6.23;;;3.00;;
9771;SDS011;4925;52.588;13.370;2023-04-25T02:53:53;5.93;;;3.40;;
9771;SDS011;4925;52.588;13.370;2023-04-25T02:56:18;6.07;;;3.37;;
9771;SDS011;4925;52.588;13.370;2023-04-25T02:58:44;5.80;;;3.10;;
9771;SDS011;4925;52.588;13.370;2023-04-25T03:01:10;8.13;;;2.80;;
9771;SDS011;4925;52.588;13.370;2023-04-25T03:03:36;4.30;;;2.97;;
9771;SDS011;4925;52.588;13.370;2023-04-25T03:06:01;7.67;;;3.40;;
9771;SDS011;4925;52.588;13.370;2023-04-25T03:08:27;7.27;;;3.50;;
9771;SDS011;4925;52.588;13.370;2023-04-25T03:10:57;7.93;;;3.23;;
9771;SDS011;4925;52.588;13.370;2023-04-25T03:13:23;4.17;;;3.37;;
9771;SDS011;4925;52.588;13.370;2023-04-25T03:15:49;5.80;;;3.03;;
9771;SDS011;4925;52.588;13.370;2023-04-25T03:18:15;5.67;;;3.03;;
9771;SDS011;4925;52.588;13.370;2023-04-25T03:20:40;5.47;;;3.67;;
9771;SDS011;4925;52.588;13.370;2023-04-25T03:23:06;8.63;;;3.30;;
9771;SDS011;4925;52.588;13.370;2023-04-25T03:25:32;9.70;;;3.33;;
9771;SDS011;4925;52.588;13.370;2023-04-25T03:27:58;7.57;;;3.80;;
9771;SDS011;4925;52.588;13.370;2023-04-25T03:30:23;11.70;;;4.20;;
9771;SDS011;4925;52.588;13.370;2023-04-25T03:32:49;7.67;;;3.20;;
9771;SDS011;4925;52.588;13.370;2023-04-25T03:35:15;4.60;;;3.50;;
9771;SDS011;4925;52.588;13.370;2023-04-25T03:37:41;3.33;;;2.83;;
9771;SDS011;4925;52.588;13.370;2023-04-25T03:40:10;7.33;;;3.37;;
9771;SDS011;4925;52.588;13.370;2023-04-25T03:42:36;13.13;;;3.40;;
9771;SDS011;4925;52.588;13.370;2023-04-25T03:45:02;7.67;;;3.73;;
9771;SDS011;4925;52.588;13.370;2023-04-25T03:47:28;8.13;;;3.47;;
9771;SDS011;4925;52.588;13.370;2023-04-25T03:49:54;7.47;;;3.67;;
9771;SDS011;4925;52.588;13.370;2023-04-25T03:52:20;8.70;;;3.40;;
9771;SDS011;4925;52.588;13.370;2023-04-25T03:54:45;4.93;;;3.30;;
9771;SDS011;4925;52.588;13.370;2023-04-25T03:57:11;10.87;;;3.47;;
9771;SDS011;4925;52.588;13.370;2023-04-25T03:59:36;6.07;;;3.17;;
9771;SDS011;4925;52.588;13.370;2023-04-25T04:02:02;5.33;;;3.27;;
9771;SDS011;4925;52.588;13.370;2023-04-25T04:04:28;6.93;;;3.70;;
9771;SDS011;4925;52.588;13.370;2023-04-25T04:06:55;5.10;;;3.10;;
9771;SDS011;4925;52.588;13.370;2023-04-25T04:09:20;6.33;;;3.50;;
9771;SDS011;4925;52.588;13.370;2023-04-25T04:11:46;6.60;;;3.57;;
9771;SDS011;4925;52.588;13.370;2023-04-25T04:14:12;7.30;;;3.57;;
9771;SDS011;4925;52.588;13.370;2023-04-25T04:16:38;7.83;;;3.70;;
9771;SDS011;4925;52.588;13.370;2023-04-25T04:19:03;6.20;;;3.40;;
9771;SDS011;4925;52.588;13.370;2023-04-25T04:21:29;9.97;;;3.50;;
9771;SDS011;4925;52.588;13.370;2023-04-25T04:23:55;6.83;;;3.20;;
9771;SDS011;4925;52.588;13.370;2023-04-25T04:26:22;8.63;;;3.43;;
9771;SDS011;4925;52.588;13.370;2023-04-25T04:28:51;10.17;;;3.60;;
9771;SDS011;4925;52.588;13.370;2023-04-25T04:31:19;5.60;;;3.20;;
9771;SDS011;4925;52.588;13.370;2023-04-25T04:33:45;6.17;;;3.00;;
9771;SDS011;4925;52.588;13.370;2023-04-25T04:36:11;4.30;;;3.43;;
9771;SDS011;4925;52.588;13.370;2023-04-25T04:38:38;8.10;;;3.20;;
9771;SDS011;4925;52.588;13.370;2023-04-25T04:41:03;5.17;;;2.73;;
9771;SDS011;4925;52.588;13.370;2023-04-25T04:43:29;7.93;;;3.93;;
9771;SDS011;4925;52.588;13.370;2023-04-25T04:45:55;9.53;;;3.30;;
9771;SDS011;4925;52.588;13.370;2023-04-25T04:48:21;4.00;;;2.67;;
9771;SDS011;4925;52.588;13.370;2023-04-25T04:50:47;5.43;;;2.40;;
9771;SDS011;4925;52.588;13.370;2023-04-25T04:53:13;6.60;;;2.60;;
9771;SDS011;4925;52.588;13.370;2023-04-25T04:55:39;8.77;;;3.10;;
9771;SDS011;4925;52.588;13.370;2023-04-25T04:58:06;12.70;;;3.33;;
9771;SDS011;4925;52.588;13.370;2023-04-25T05:00:32;2.93;;;2.63;;
9771;SDS011;4925;52.588;13.370;2023-04-25T05:02:58;5.13;;;3.13;;
9771;SDS011;4925;52.588;13.370;2023-04-25T05:05:24;7.30;;;2.70;;
9771;SDS011;4925;52.588;13.370;2023-04-25T05:07:49;6.40;;;2.67;;
9771;SDS011;4925;52.588;13.370;2023-04-25T05:10:16;8.97;;;3.07;;
9771;SDS011;4925;52.588;13.370;2023-04-25T05:12:43;6.67;;;3.10;;
9771;SDS011;4925;52.588;13.370;2023-04-25T05:15:09;8.53;;;3.23;;
9771;SDS011;4925;52.588;13.370;2023-04-25T05:17:35;6.23;;;2.93;;
9771;SDS011;4925;52.588;13.370;2023-04-25T05:20:00;8.33;;;3.47;;
9771;SDS011;4925;52.588;13.370;2023-04-25T05:22:26;7.23;;;2.87;;
9771;SDS011;4925;52.588;13.370;2023-04-25T05:24:52;6.07;;;3.23;;
9771;SDS011;4925;52.588;13.370;2023-04-25T05:27:18;6.80;;;3.03;;
9771;SDS011;4925;52.588;13.370;2023-04-25T05:29:44;8.73;;;2.93;;
9771;SDS011;4925;52.588;13.370;2023-04-25T05:32:10;6.10;;;3.20;;
9771;SDS011;4925;52.588;13.370;2023-04-25T05:34:36;4.83;;;3.17;;
9771;SDS011;4925;52.588;13.370;2023-04-25T05:37:02;7.40;;;4.03;;
9771;SDS011;4925;52.588;13.370;2023-04-25T05:39:28;5.90;;;2.80;;
9771;SDS011;4925;52.588;13.370;2023-04-25T05:41:54;7.70;;;3.23;;
9771;SDS011;4925;52.588;13.370;2023-04-25T05:44:19;7.27;;;2.87;;
9771;SDS011;4925;52.588;13.370;2023-04-25T05:46:45;6.17;;;3.50;;
9771;SDS011;4925;52.588;13.370;2023-04-25T05:49:11;5.30;;;3.33;;
9771;SDS011;4925;52.588;13.370;2023-04-25T05:51:37;6.00;;;3.80;;
9771;SDS011;4925;52.588;13.370;2023-04-25T05:54:02;5.43;;;3.70;;
9771;SDS011;4925;52.588;13.370;2023-04-25T05:56:28;10.00;;;4.37;;
9771;SDS011;4925;52.588;13.370;2023-04-25T05:58:54;6.13;;;3.60;;
9771;SDS011;4925;52.588;13.370;2023-04-25T06:01:20;7.93;;;3.53;;
9771;SDS011;4925;52.588;13.370;2023-04-25T06:03:46;9.80;;;4.37;;
9771;SDS011;4925;52.588;13.370;2023-04-25T06:06:12;7.50;;;3.33;;
9771;SDS011;4925;52.588;13.370;2023-04-25T06:08:38;6.30;;;3.83;;
9771;SDS011;4925;52.588;13.370;2023-04-25T06:11:04;7.90;;;3.87;;
9771;SDS011;4925;52.588;13.370;2023-04-25T06:13:30;6.83;;;4.13;;
9771;SDS011;4925;52.588;13.370;2023-04-25T06:15:55;6.17;;;3.40;;
9771;SDS011;4925;52.588;13.370;2023-04-25T06:18:21;8.00;;;4.30;;
9771;SDS011;4925;52.588;13.370;2023-04-25T06:20:46;9.23;;;4.20;;
9771;SDS011;4925;52.588;13.370;2023-04-25T06:23:12;7.80;;;4.80;;
9771;SDS011;4925;52.588;13.370;2023-04-25T06:25:38;13.43;;;3.90;;
9771;SDS011;4925;52.588;13.370;2023-04-25T06:28:03;6.13;;;4.00;;
9771;SDS011;4925;52.588;13.370;2023-04-25T06:30:29;9.03;;;3.77;;
9771;SDS011;4925;52.588;13.370;2023-04-25T06:32:55;7.40;;;3.83;;
9771;SDS011;4925;52.588;13.370;2023-04-25T06:35:21;5.63;;;3.70;;
9771;SDS011;4925;52.588;13.370;2023-04-25T06:37:46;6.13;;;4.20;;
9771;SDS011;4925;52.588;13.370;2023-04-25T06:40:12;6.77;;;3.80;;
9771;SDS011;4925;52.588;13.370;2023-04-25T06:42:38;6.73;;;3.47;;
9771;SDS011;4925;52.588;13.370;2023-04-25T06:45:03;8.43;;;4.00;;
9771;SDS011;4925;52.588;13.370;2023-04-25T06:47:30;10.27;;;4.10;;
9771;SDS011;4925;52.588;13.370;2023-04-25T06:49:55;7.00;;;3.87;;
9771;SDS011;4925;52.588;13.370;2023-04-25T06:52:21;10.43;;;4.73;;
9771;SDS011;4925;52.588;13.370;2023-04-25T06:54:47;8.03;;;3.67;;
9771;SDS011;4925;52.588;13.370;2023-04-25T06:57:12;8.03;;;4.07;;
9771;SDS011;4925;52.588;13.370;2023-04-25T06:59:38;7.50;;;3.47;;
9771;SDS011;4925;52.588;13.370;2023-04-25T07:02:04;6.43;;;3.33;;
9771;SDS011;4925;52.588;13.370;2023-04-25T07:04:30;8.43;;;3.80;;
9771;SDS011;4925;52.588;13.370;2023-04-25T07:06:56;6.03;;;3.77;;
9771;SDS011;4925;52.588;13.370;2023-04-25T07:09:22;9.07;;;3.67;;
9771;SDS011;4925;52.588;13.370;2023-04-25T07:11:48;5.73;;;3.53;;
9771;SDS011;4925;52.588;13.370;2023-04-25T07:14:14;8.07;;;4.00;;
9771;SDS011;4925;52.588;13.370;2023-04-25T07:16:40;8.70;;;3.40;;
9771;SDS011;4925;52.588;13.370;2023-04-25T07:19:05;5.17;;;3.80;;
9771;SDS011;4925;52.588;13.370;2023-04-25T07:21:31;9.17;;;3.93;;
9771;SDS011;4925;52.588;13.370;2023-04-25T07:23:57;8.27;;;3.73;;
9771;SDS011;4925;52.588;13.370;2023-04-25T07:26:23;7.00;;;3.43;;
9771;SDS011;4925;52.588;13.370;2023-04-25T07:28:49;11.87;;;3.77;;
9771;SDS011;4925;52.588;13.370;2023-04-25T07:31:16;6.80;;;3.03;;
9771;SDS011;4925;52.588;13.370;2023-04-25T07:33:43;7.57;;;3.03;;
9771;SDS011;4925;52.588;13.370;2023-04-25T07:36:10;8.13;;;3.93;;
9771;SDS011;4925;52.588;13.370;2023-04-25T07:38:37;7.73;;;3.47;;
9771;SDS011;4925;52.588;13.370;2023-04-25T07:41:03;8.90;;;2.80;;
9771;SDS011;4925;52.588;13.370;2023-04-25T07:43:29;10.13;;;3.67;;
9771;SDS011;4925;52.588;13.370;2023-04-25T07:45:55;9.07;;;3.70;;
9771;SDS011;4925;52.588;13.370;2023-04-25T07:48:21;10.23;;;3.40;;
9771;SDS011;4925;52.588;13.370;2023-04-25T07:50:47;10.93;;;3.80;;
9771;SDS011;4925;52.588;13.370;2023-04-25T07:53:13;9.20;;;3.17;;
9771;SDS011;4925;52.588;13.370;2023-04-25T07:55:38;14.63;;;3.33;;
9771;SDS011;4925;52.588;13.370;2023-04-25T07:58:08;13.47;;;2.87;;
9771;SDS011;4925;52.588;13.370;2023-04-25T08:00:34;13.33;;;4.30;;
9771;SDS011;4925;52.588;13.370;2023-04-25T08:03:01;14.10;;;3.27;;
9771;SDS011;4925;52.588;13.370;2023-04-25T08:05:27;9.73;;;3.43;;
9771;SDS011;4925;52.588;13.370;2023-04-25T08:07:53;11.17;;;3.80;;
9771;SDS011;4925;52.588;13.370;2023-04-25T08:10:19;15.20;;;3.80;;
9771;SDS011;4925;52.588;13.370;2023-04-25T08:12:45;16.90;;;4.20;;
9771;SDS011;4925;52.588;13.370;2023-04-25T08:15:11;13.67;;;3.60;;
9771;SDS011;4925;52.588;13.370;2023-04-25T08:17:38;10.20;;;3.73;;
9771;SDS011;4925;52.588;13.370;2023-04-25T08:20:04;18.27;;;3.37;;
9771;SDS011;4925;52.588;13.370;2023-04-25T08:22:30;16.17;;;3.83;;
9771;SDS011;4925;52.588;13.370;2023-04-25T08:24:56;15.53;;;3.40;;
9771;SDS011;4925;52.588;13.370;2023-04-25T08:27:22;11.43;;;3.07;;
9771;SDS011;4925;52.588;13.370;2023-04-25T08:29:48;14.37;;;4.10;;
9771;SDS011;4925;52.588;13.370;2023-04-25T08:32:15;16.10;;;4.00;;
9771;SDS011;4925;52.588;13.370;2023-04-25T08:34:41;10.43;;;2.77;;
9771;SDS011;4925;52.588;13.370;2023-04-25T08:37:08;14.47;;;3.23;;
9771;SDS011;4925;52.588;13.370;2023-04-25T08:39:35;12.63;;;2.87;;
9771;SDS011;4925;52.588;13.370;2023-04-25T08:42:02;12.60;;;3.00;;
9771;SDS011;4925;52.588;13.370;2023-04-25T08:44:33;11.43;;;3.07;;
9771;SDS011;4925;52.588;13.370;2023-04-25T08:47:00;10.20;;;2.70;;
9771;SDS011;4925;52.588;13.370;2023-04-25T08:49:31;17.83;;;3.47;;
9771;SDS011;4925;52.588;13.370;2023-04-25T08:51:59;8.43;;;2.83;;
9771;SDS011;4925;52.588;13.370;2023-04-25T08:54:26;12.00;;;3.10;;
9771;SDS011;4925;52.588;13.370;2023-04-25T08:56:54;8.43;;;2.63;;
9771;SDS011;4925;52.588;13.370;2023-04-25T08:59:20;13.43;;;3.53;;
9771;SDS011;4925;52.588;13.370;2023-04-25T09:01:48;10.37;;;3.00;;
9771;SDS011;4925;52.588;13.370;2023-04-25T09:04:14;9.00;;;3.30;;
9771;SDS011;4925;52.588;13.370;2023-04-25T09:06:40;12.07;;;3.17;;
9771;SDS011;4925;52.588;13.370;2023-04-25T09:09:07;7.30;;;2.70;;
9771;SDS011;4925;52.588;13.370;2023-04-25T09:11:36;8.87;;;2.67;;
9771;SDS011;4925;52.588;13.370;2023-04-25T09:14:12;11.57;;;3.30;;
9771;SDS011;4925;52.588;13.370;2023-04-25T09:16:57;13.70;;;2.63;;
9771;SDS011;4925;52.588;13.370;2023-04-25T09:19:29;11.60;;;2.83;;
9771;SDS011;4925;52.588;13.370;2023-04-25T09:21:57;9.70;;;3.20;;
9771;SDS011;4925;52.588;13.370;2023-04-25T09:24:32;9.67;;;2.83;;
9771;SDS011;4925;52.588;13.370;2023-04-25T09:27:06;12.83;;;2.73;;
9771;SDS011;4925;52.588;13.370;2023-04-25T09:29:37;11.73;;;2.53;;
9771;SDS011;4925;52.588;13.370;2023-04-25T09:32:10;11.87;;;2.70;;
9771;SDS011;4925;52.588;13.370;2023-04-25T09:34:53;9.43;;;2.30;;
9771;SDS011;4925;52.588;13.370;2023-04-25T09:39:52;7.57;;;2.10;;
9771;SDS011;4925;52.588;13.370;2023-04-25T09:42:21;8.57;;;1.83;;
9771;SDS011;4925;52.588;13.370;2023-04-25T09:44:49;5.57;;;2.13;;
9771;SDS011;4925;52.588;13.370;2023-04-25T09:47:17;10.30;;;2.33;;
9771;SDS011;4925;52.588;13.370;2023-04-25T09:49:43;6.57;;;2.23;;
9771;SDS011;4925;52.588;13.370;2023-04-25T09:52:13;8.87;;;2.33;;
9771;SDS011;4925;52.588;13.370;2023-04-25T09:54:40;9.73;;;2.60;;
9771;SDS011;4925;52.588;13.370;2023-04-25T09:59:43;10.50;;;2.10;;
9771;SDS011;4925;52.588;13.370;2023-04-25T10:02:10;7.77;;;2.00;;
9771;SDS011;4925;52.588;13.370;2023-04-25T10:04:37;4.77;;;2.00;;
9771;SDS011;4925;52.588;13.370;2023-04-25T10:07:07;10.90;;;2.07;;
9771;SDS011;4925;52.588;13.370;2023-04-25T10:09:36;7.00;;;1.70;;
9771;SDS011;4925;52.588;13.370;2023-04-25T10:12:04;6.43;;;1.93;;
9771;SDS011;4925;52.588;13.370;2023-04-25T10:14:31;7.60;;;1.77;;
9771;SDS011;4925;52.588;13.370;2023-04-25T10:16:57;7.00;;;1.90;;
9771;SDS011;4925;52.588;13.370;2023-04-25T10:19:24;9.10;;;2.73;;
9771;SDS011;4925;52.588;13.370;2023-04-25T10:21:55;14.03;;;3.43;;
9771;SDS011;4925;52.588;13.370;2023-04-25T10:24:22;6.53;;;2.23;;
9771;SDS011;4925;52.588;13.370;2023-04-25T10:26:49;7.07;;;2.10;;
9771;SDS011;4925;52.588;13.370;2023-04-25T10:29:22;5.67;;;1.60;;
9771;SDS011;4925;52.588;13.370;2023-04-25T10:31:49;10.27;;;2.40;;
9771;SDS011;4925;52.588;13.370;2023-04-25T10:34:15;8.53;;;2.13;;
9771;SDS011;4925;52.588;13.370;2023-04-25T10:36:42;8.27;;;2.30;;
9771;SDS011;4925;52.588;13.370;2023-04-25T10:39:13;8.63;;;1.90;;
9771;SDS011;4925;52.588;13.370;2023-04-25T10:42:01;4.83;;;1.93;;
9771;SDS011;4925;52.588;13.370;2023-04-25T10:44:28;3.83;;;1.90;;
9771;SDS011;4925;52.588;13.370;2023-04-25T10:46:55;5.13;;;1.60;;
9771;SDS011;4925;52.588;13.370;2023-04-25T10:49:29;6.60;;;1.90;;
9771;SDS011;4925;52.588;13.370;2023-04-25T10:54:48;5.00;;;2.10;;
9771;SDS011;4925;52.588;13.370;2023-04-25T11:00:00;5.13;;;1.77;;
9771;SDS011;4925;52.588;13.370;2023-04-25T11:02:26;4.17;;;1.77;;
9771;SDS011;4925;52.588;13.370;2023-04-25T11:04:53;9.37;;;1.90;;
9771;SDS011;4925;52.588;13.370;2023-04-25T11:09:53;4.77;;;2.60;;
9771;SDS011;4925;52.588;13.370;2023-04-25T11:12:19;7.90;;;2.33;;
9771;SDS011;4925;52.588;13.370;2023-04-25T11:14:45;6.40;;;2.27;;
9771;SDS011;4925;52.588;13.370;2023-04-25T11:17:10;5.33;;;1.70;;
9771;SDS011;4925;52.588;13.370;2023-04-25T11:19:36;7.17;;;2.17;;
9771;SDS011;4925;52.588;13.370;2023-04-25T11:22:02;6.03;;;1.93;;
9771;SDS011;4925;52.588;13.370;2023-04-25T11:24:32;9.47;;;2.40;;
9771;SDS011;4925;52.588;13.370;2023-04-25T11:26:59;8.37;;;2.40;;
9771;SDS011;4925;52.588;13.370;2023-04-25T11:29:30;5.37;;;1.60;;
9771;SDS011;4925;52.588;13.370;2023-04-25T11:31:56;7.47;;;1.63;;
9771;SDS011;4925;52.588;13.370;2023-04-25T11:34:26;4.93;;;1.27;;
9771;SDS011;4925;52.588;13.370;2023-04-25T11:36:53;5.23;;;2.03;;
9771;SDS011;4925;52.588;13.370;2023-04-25T11:39:19;4.57;;;1.70;;
9771;SDS011;4925;52.588;13.370;2023-04-25T11:41:46;7.20;;;1.97;;
9771;SDS011;4925;52.588;13.370;2023-04-25T11:44:12;5.87;;;1.63;;
9771;SDS011;4925;52.588;13.370;2023-04-25T11:46:41;6.70;;;2.10;;
9771;SDS011;4925;52.588;13.370;2023-04-25T11:49:07;8.40;;;2.00;;
9771;SDS011;4925;52.588;13.370;2023-04-25T11:51:42;4.80;;;1.70;;
9771;SDS011;4925;52.588;13.370;2023-04-25T11:54:10;8.47;;;1.83;;
9771;SDS011;4925;52.588;13.370;2023-04-25T11:56:36;5.47;;;1.63;;
9771;SDS011;4925;52.588;13.370;2023-04-25T11:59:03;4.37;;;1.30;;
9771;SDS011;4925;52.588;13.370;2023-04-25T12:01:34;3.67;;;1.50;;
9771;SDS011;4925;52.588;13.370;2023-04-25T12:04:15;7.27;;;1.93;;
9771;SDS011;4925;52.588;13.370;2023-04-25T12:06:44;7.70;;;2.07;;
9771;SDS011;4925;52.588;13.370;2023-04-25T12:09:13;9.40;;;2.43;;
9771;SDS011;4925;52.588;13.370;2023-04-25T12:14:23;4.23;;;1.53;;
9771;SDS011;4925;52.588;13.370;2023-04-25T12:16:51;9.00;;;2.03;;
9771;SDS011;4925;52.588;13.370;2023-04-25T12:19:20;6.90;;;1.93;;
9771;SDS011;4925;52.588;13.370;2023-04-25T12:21:46;2.80;;;1.60;;
9771;SDS011;4925;52.588;13.370;2023-04-25T12:24:13;7.40;;;1.80;;
9771;SDS011;4925;52.588;13.370;2023-04-25T12:29:28;5.57;;;2.00;;
9771;SDS011;4925;52.588;13.370;2023-04-25T12:31:55;6.00;;;1.97;;
9771;SDS011;4925;52.588;13.370;2023-04-25T12:34:21;3.63;;;1.47;;
9771;SDS011;4925;52.588;13.370;2023-04-25T12:36:48;4.40;;;1.77;;
9771;SDS011;4925;52.588;13.370;2023-04-25T12:39:19;6.40;;;1.50;;
9771;SDS011;4925;52.588;13.370;2023-04-25T12:41:45;7.93;;;2.13;;
9771;SDS011;4925;52.588;13.370;2023-04-25T12:44:11;4.20;;;1.70;;
9771;SDS011;4925;52.588;13.370;2023-04-25T12:46:38;5.80;;;2.07;;
9771;SDS011;4925;52.588;13.370;2023-04-25T12:49:04;6.67;;;1.53;;
9771;SDS011;4925;52.588;13.370;2023-04-25T12:51:31;6.60;;;1.67;;
9771;SDS011;4925;52.588;13.370;2023-04-25T12:53:58;5.77;;;1.90;;
9771;SDS011;4925;52.588;13.370;2023-04-25T12:56:27;5.97;;;1.77;;
9771;SDS011;4925;52.588;13.370;2023-04-25T12:58:54;5.20;;;2.23;;
9771;SDS011;4925;52.588;13.370;2023-04-25T13:01:20;4.27;;;1.90;;
9771;SDS011;4925;52.588;13.370;2023-04-25T13:03:46;5.70;;;1.90;;
9771;SDS011;4925;52.588;13.370;2023-04-25T13:06:13;3.97;;;1.20;;
9771;SDS011;4925;52.588;13.370;2023-04-25T13:08:39;2.63;;;1.30;;
9771;SDS011;4925;52.588;13.370;2023-04-25T13:11:06;3.07;;;1.30;;
9771;SDS011;4925;52.588;13.370;2023-04-25T13:13:32;3.97;;;1.40;;
9771;SDS011;4925;52.588;13.370;2023-04-25T13:15:59;2.70;;;1.37;;
9771;SDS011;4925;52.588;13.370;2023-04-25T13:18:28;3.00;;;1.40;;
9771;SDS011;4925;52.588;13.370;2023-04-25T13:20:54;4.07;;;1.70;;
9771;SDS011;4925;52.588;13.370;2023-04-25T13:23:20;10.10;;;1.93;;
9771;SDS011;4925;52.588;13.370;2023-04-25T13:25:46;5.83;;;1.70;;
9771;SDS011;4925;52.588;13.370;2023-04-25T13:28:12;2.70;;;1.47;;
9771;SDS011;4925;52.588;13.370;2023-04-25T13:30:38;5.20;;;1.37;;
9771;SDS011;4925;52.588;13.370;2023-04-25T13:33:05;5.27;;;1.97;;
9771;SDS011;4925;52.588;13.370;2023-04-25T13:35:32;7.47;;;1.50;;
9771;SDS011;4925;52.588;13.370;2023-04-25T13:37:59;4.67;;;1.70;;
9771;SDS011;4925;52.588;13.370;2023-04-25T13:40:25;6.90;;;1.80;;
9771;SDS011;4925;52.588;13.370;2023-04-25T13:42:52;4.23;;;1.60;;
9771;SDS011;4925;52.588;13.370;2023-04-25T13:45:17;2.90;;;1.30;;
9771;SDS011;4925;52.588;13.370;2023-04-25T13:47:44;8.30;;;1.50;;
9771;SDS011;4925;52.588;13.370;2023-04-25T13:50:09;5.23;;;1.47;;
9771;SDS011;4925;52.588;13.370;2023-04-25T13:52:35;4.17;;;1.53;;
9771;SDS011;4925;52.588;13.370;2023-04-25T13:55:01;8.07;;;2.60;;
9771;SDS011;4925;52.588;13.370;2023-04-25T13:57:30;3.63;;;1.20;;
9771;SDS011;4925;52.588;13.370;2023-04-25T13:59:59;5.17;;;1.43;;
9771;SDS011;4925;52.588;13.370;2023-04-25T14:02:29;4.60;;;1.40;;
9771;SDS011;4925;52.588;13.370;2023-04-25T14:04:55;4.93;;;1.97;;
9771;SDS011;4925;52.588;13.370;2023-04-25T14:07:21;6.27;;;2.13;;
9771;SDS011;4925;52.588;13.370;2023-04-25T14:09:47;2.97;;;1.13;;
9771;SDS011;4925;52.588;13.370;2023-04-25T14:12:12;1.57;;;0.97;;
9771;SDS011;4925;52.588;13.370;2023-04-25T14:14:38;3.10;;;1.23;;
9771;SDS011;4925;52.588;13.370;2023-04-25T14:17:04;3.17;;;1.30;;
9771;SDS011;4925;52.588;13.370;2023-04-25T14:19:30;5.13;;;1.40;;
9771;SDS011;4925;52.588;13.370;2023-04-25T14:21:55;4.10;;;1.53;;
9771;SDS011;4925;52.588;13.370;2023-04-25T14:24:21;5.03;;;1.60;;
9771;SDS011;4925;52.588;13.370;2023-04-25T14:26:47;3.83;;;1.20;;
9771;SDS011;4925;52.588;13.370;2023-04-25T14:29:13;2.87;;;1.37;;
9771;SDS011;4925;52.588;13.370;2023-04-25T14:31:39;4.00;;;1.20;;
9771;SDS011;4925;52.588;13.370;2023-04-25T14:34:05;3.87;;;1.67;;
9771;SDS011;4925;52.588;13.370;2023-04-25T14:36:31;4.67;;;1.43;;
9771;SDS011;4925;52.588;13.370;2023-04-25T14:38:58;4.00;;;1.63;;
9771;SDS011;4925;52.588;13.370;2023-04-25T14:41:24;3.80;;;1.60;;
9771;SDS011;4925;52.588;13.370;2023-04-25T14:43:51;5.80;;;1.73;;
9771;SDS011;4925;52.588;13.370;2023-04-25T14:46:17;7.33;;;1.80;;
9771;SDS011;4925;52.588;13.370;2023-04-25T14:48:44;5.50;;;1.70;;
9771;SDS011;4925;52.588;13.370;2023-04-25T14:51:10;2.87;;;1.50;;
9771;SDS011;4925;52.588;13.370;2023-04-25T14:53:36;4.60;;;1.80;;
9771;SDS011;4925;52.588;13.370;2023-04-25T14:56:02;9.07;;;3.30;;
9771;SDS011;4925;52.588;13.370;2023-04-25T14:58:28;5.33;;;1.50;;
9771;SDS011;4925;52.588;13.370;2023-04-25T15:00:54;4.73;;;1.40;;
9771;SDS011;4925;52.588;13.370;2023-04-25T15:03:20;4.97;;;1.23;;
9771;SDS011;4925;52.588;13.370;2023-04-25T15:05:46;2.77;;;0.90;;
9771;SDS011;4925;52.588;13.370;2023-04-25T15:08:11;2.03;;;1.20;;
9771;SDS011;4925;52.588;13.370;2023-04-25T15:10:37;3.00;;;1.00;;
9771;SDS011;4925;52.588;13.370;2023-04-25T15:13:03;5.43;;;1.07;;
9771;SDS011;4925;52.588;13.370;2023-04-25T15:15:29;6.17;;;1.33;;